Latest Weather Observations for Macquarie Island*

IDT60801

Issued at 9:35 pm EST Friday 19 September 2014 (issued every 30 minutes, with the page automatically refreshed every 10 minutes)

About weather observations | Map of weather stations | Latest weather observations for ANT | Other Formats
Station Details ID: 300004 Name: MACQUARIE ISLAND Lat: -54.50 Lon: 158.94 Height: 6.0 m
Data from the previous 72 hours. | See also: Recent months at Macquarie Island*
Date/Time
EST
Temp
°C
App
Temp
°C
Dew
Point
Rel
Hum
%
Delta-T
°C
Wind Press
QNH
hPa
Press
MSL
hPa
Rain
since 9 am
mm
Dir
 
Spd
km/h
Gust
km/h
Spd
kts
Gust
kts
19/09:30pm 2.2 -2.6 -0.1 85 0.8 SW 15 20 8 11 1000.5 - 1.0
19/09:00pm 2.3 -2.9 0.0 85 0.9 SW 17 30 9 16 1000.4 1000.7 1.0
19/08:30pm 2.4 -3.8 0.0 84 0.9 WSW 22 32 12 17 1000.4 - 1.0
19/08:00pm 2.4 -2.0 0.5 87 0.7 SW 13 28 7 15 1000.3 - 1.0
19/07:30pm 2.4 -2.7 0.6 88 0.7 SW 17 28 9 15 1000.1 - 1.0
19/07:12pm 2.5 -4.7 0.6 87 0.7 W 28 46 15 25 1000.1 - 0.6
19/07:00pm 2.7 -4.5 0.6 86 0.8 W 28 41 15 22 1000.1 - 0.6
19/06:30pm 2.9 -5.2 -0.2 80 1.1 W 32 46 17 25 1000.1 - 0.4
19/06:08pm 2.9 -4.6 -1.1 75 1.4 W 28 46 15 25 1000.1 - 0.4
19/06:00pm 3.0 -4.0 -0.6 77 1.3 W 26 39 14 21 1000.1 1000.4 0.4
19/05:30pm 2.8 -1.8 -1.0 76 1.4 W 13 24 7 13 1000.2 - 0.4
19/05:00pm 2.7 -2.0 -1.5 74 1.5 WSW 13 24 7 13 1000.2 - 0.4
19/04:30pm 2.9 -1.7 -1.3 74 1.5 WSW 13 26 7 14 1000.1 - 0.4
19/04:00pm 3.1 -2.0 -1.6 71 1.7 SW 15 28 8 15 999.9 - 0.4
19/03:30pm 3.0 -2.1 -1.7 71 1.7 SW 15 26 8 14 999.7 - 0.4
19/03:00pm 3.2 -2.9 -2.1 68 1.9 SSW 20 33 11 18 999.7 1000.0 0.4
19/02:30pm 3.1 -2.4 -1.8 70 1.7 S 17 26 9 14 999.6 - 0.4
19/02:00pm 3.2 -1.9 -2.1 68 1.9 SSW 15 24 8 13 999.6 - 0.4
19/01:30pm 3.1 -2.9 -1.8 70 1.7 S 20 30 11 16 999.4 - 0.4
19/01:00pm 3.3 -2.7 -1.6 70 1.8 S 20 26 11 14 999.4 - 0.4
19/12:30pm 3.0 -3.7 -0.8 76 1.4 SSE 24 30 13 16 999.5 - 0.4
19/12:00pm 3.0 -3.2 -0.3 79 1.2 SSE 22 28 12 15 999.5 999.8 0.4
19/11:30am 2.7 -4.2 -0.1 82 1.0 SSE 26 32 14 17 999.4 - 0.4
19/11:00am 2.7 -3.8 0.3 84 0.9 SE 24 30 13 16 999.5 - 0.4
19/10:30am 2.4 -4.1 0.6 88 0.7 SE 24 32 13 17 999.6 - 0.4
19/10:00am 2.1 -4.7 0.5 89 0.6 SE 26 32 14 17 999.5 - 0.4
19/09:30am 1.9 -5.3 0.4 90 0.6 S 28 35 15 19 999.7 - 0.2
19/09:15am 1.9 -5.4 0.3 89 0.6 SSE 28 46 15 25 999.7 - 0.0
19/09:00am 2.2 -4.7 0.4 88 0.7 SSE 26 41 14 22 999.7 1000.0 0.0
19/08:30am 2.6 -3.7 -1.0 77 1.3 SSE 22 32 12 17 999.7 - 0.0
19/08:00am 2.2 -4.1 -1.1 79 1.2 S 22 28 12 15 999.6 - 0.0
19/07:30am 2.5 -5.4 -1.5 75 1.4 SSE 30 37 16 20 999.4 - 0.0
19/07:00am 2.1 -6.1 -1.2 79 1.2 SSE 32 39 17 21 999.4 - 0.0
19/06:30am 1.9 -6.5 -1.3 79 1.1 SSE 33 41 18 22 999.2 - 0.0
19/06:00am 1.8 -6.5 -1.4 79 1.1 SE 32 41 17 22 999.1 999.4 0.0
19/05:30am 1.8 -7.1 -1.6 78 1.2 SSE 35 43 19 23 999.1 - 0.0
19/05:00am 2.1 -6.7 -1.3 78 1.2 SE 35 43 19 23 998.8 - 0.0
19/04:30am 1.9 -7.4 -1.9 76 1.3 SSE 37 46 20 25 998.6 - 0.0
19/04:00am 1.8 -7.9 -2.3 74 1.4 SSE 39 50 21 27 998.6 - 0.0
19/03:30am 1.6 -7.9 -3.7 68 1.9 SSE 37 50 20 27 998.6 - 0.0
19/03:00am 1.9 -7.0 -2.2 74 1.4 SSE 35 46 19 25 998.6 998.9 0.0
19/02:30am 2.0 -7.3 -2.0 75 1.4 SSE 37 48 20 26 998.7 - 0.0
19/02:00am 1.8 -6.8 -2.3 74 1.4 SSE 33 46 18 25 998.9 - 0.0
19/01:30am 1.6 -7.5 -3.3 70 1.7 SSE 35 48 19 26 999.1 - 0.0
19/01:00am 1.9 -7.0 -2.2 74 1.4 SSE 35 44 19 24 998.9 - 0.0
19/12:30am 1.4 -8.0 -3.3 71 1.7 SSE 37 46 20 25 998.8 - 0.0
19/12:00am 1.5 -7.0 -3.0 72 1.6 S 32 43 17 23 998.9 999.2 0.0
 
Date/Time
EST
Temp
°C
App
Temp
°C
Dew
Point
Rel
Hum
%
Delta-T
°C
Wind Press
QNH
hPa
Press
MSL
hPa
Rain
since 9 am
mm
Dir
 
Spd
km/h
Gust
km/h
Spd
kts
Gust
kts
18/11:30pm 1.6 -6.6 -3.7 68 1.9 SSE 30 43 16 23 998.7 - 0.0
18/11:00pm 1.1 -6.4 -4.1 68 1.8 S 26 35 14 19 999.0 - 0.0
18/10:30pm 1.0 -5.8 -4.8 65 1.9 S 22 30 12 16 999.2 - 0.0
18/10:00pm 1.1 -5.6 -4.1 68 1.8 S 22 32 12 17 999.4 - 0.0
18/09:30pm 0.8 -6.4 -5.0 65 1.9 S 24 32 13 17 999.8 - 0.0
18/09:00pm 0.8 -5.5 -5.4 63 2.0 SSW 19 26 10 14 1000.0 1000.3 0.0
18/08:30pm 1.0 -5.3 -4.2 68 1.8 S 20 28 11 15 1000.2 - 0.0
18/08:00pm 1.1 -4.6 -3.7 70 1.7 S 17 22 9 12 1000.5 - 0.0
18/07:30pm 0.8 -5.6 -4.6 67 1.8 S 20 28 11 15 1000.6 - 0.0
18/07:00pm 0.7 -4.7 -4.7 67 1.8 SSW 15 24 8 13 1000.4 - 0.0
18/06:30pm 0.8 -5.0 -4.4 68 1.7 S 17 30 9 16 1000.4 - 0.0
18/06:00pm 0.8 -5.9 -4.6 67 1.8 S 22 35 12 19 1000.2 1000.5 0.0
18/05:30pm 0.9 -4.8 -4.1 69 1.7 S 17 28 9 15 1000.0 - 0.0
18/05:00pm 0.9 -6.1 -3.7 71 1.6 S 24 35 13 19 999.9 - 0.0
18/04:30pm 0.5 -7.4 -4.9 67 1.8 S 28 37 15 20 999.7 - 0.0
18/04:00pm 0.6 -7.3 -4.6 68 1.7 S 28 39 15 21 999.5 - 0.0
18/03:30pm 0.8 -6.0 -4.8 66 1.8 S 22 35 12 19 999.4 - 0.0
18/03:00pm 0.6 -6.5 -4.8 67 1.8 S 24 35 13 19 999.5 999.8 0.0
18/02:30pm 1.2 -6.6 -4.0 68 1.8 SSW 28 39 15 21 999.3 - 0.0
18/02:00pm 1.9 -4.7 -3.6 67 1.8 S 22 35 12 19 999.1 - 0.0
18/01:30pm 2.1 -3.5 -3.0 69 1.7 SSW 17 26 9 14 999.1 - 0.0
18/01:00pm 2.5 -4.4 -3.0 67 1.9 S 24 35 13 19 999.1 - 0.0
18/12:30pm 2.5 -3.6 -4.0 62 2.2 SSW 19 33 10 18 999.1 - 0.0
18/12:00pm 2.8 -3.8 -3.1 65 2.0 SSW 22 30 12 16 999.1 999.4 0.0
18/11:30am 2.9 -3.3 -2.8 66 2.0 SSW 20 32 11 17 999.3 - 0.0
18/11:00am 2.9 -3.6 -2.2 69 1.8 S 22 33 12 18 999.2 - 0.0
18/10:30am 3.0 -3.7 -1.4 73 1.6 S 24 37 13 20 999.0 - 0.0
18/10:00am 3.0 -4.2 -2.1 69 1.8 S 26 37 14 20 999.0 - 0.0
18/09:30am 2.9 -4.2 -1.6 72 1.6 S 26 35 14 19 998.7 - 0.0
18/09:00am 3.4 -3.9 -0.1 78 1.3 S 28 35 15 19 998.5 998.8 2.8
18/08:30am 2.8 -5.3 0.0 82 1.0 S 32 41 17 22 998.3 - 2.8
18/08:00am 2.7 -5.4 -0.1 82 1.0 S 32 41 17 22 997.9 - 2.8
18/07:30am 2.7 -5.4 0.8 87 0.7 S 33 46 18 25 997.5 - 2.8
18/07:00am 3.1 -3.7 1.0 86 0.8 S 26 37 14 20 997.2 - 2.8
18/06:30am 3.3 -2.6 1.5 88 0.7 S 22 28 12 15 996.7 - 2.8
18/06:00am 3.4 -3.2 1.9 90 0.6 S 26 35 14 19 996.2 996.5 2.8
18/05:30am 3.6 -2.2 2.3 91 0.5 SW 22 35 12 19 996.0 - 2.8
18/05:00am 4.9 -1.8 3.7 92 0.5 W 28 35 15 19 995.2 - 2.6
18/04:30am 5.1 -1.6 3.9 92 0.5 WNW 28 35 15 19 994.9 - 2.6
18/04:00am 5.2 -0.7 4.0 92 0.5 WNW 24 30 13 16 994.8 - 2.6
18/03:30am 5.2 -1.9 3.7 90 0.6 NW 30 35 16 19 994.7 - 2.6
18/03:00am 5.3 -2.3 4.0 91 0.6 WNW 33 39 18 21 994.8 995.1 2.6
18/02:30am 5.4 -1.6 4.1 91 0.6 NNW 30 33 16 18 994.8 - 2.6
18/02:00am 5.5 -1.1 4.2 91 0.6 NNW 28 33 15 18 994.8 - 2.6
18/01:30am 5.6 -1.0 4.2 91 0.6 NNW 28 35 15 19 995.0 - 2.6
18/01:00am 5.6 -0.6 4.1 90 0.6 NNW 26 32 14 17 995.1 - 2.6
18/12:30am 5.6 -1.4 3.9 89 0.7 NNW 30 37 16 20 995.3 - 2.6
18/12:00am 5.5 -1.5 4.3 92 0.5 NNW 30 35 16 19 995.5 995.8 2.6
 
Date/Time
EST
Temp
°C
App
Temp
°C
Dew
Point
Rel
Hum
%
Delta-T
°C
Wind Press
QNH
hPa
Press
MSL
hPa
Rain
since 9 am
mm
Dir
 
Spd
km/h
Gust
km/h
Spd
kts
Gust
kts
17/11:30pm 5.6 -1.7 4.6 93 0.4 NNW 32 37 17 20 995.6 - 2.6
17/11:00pm 5.6 -2.7 4.4 92 0.5 NNW 37 43 20 23 995.7 - 2.6
17/10:30pm 5.6 -3.4 4.4 92 0.5 NNW 41 46 22 25 995.8 - 2.6
17/10:00pm 5.4 -3.3 3.9 90 0.6 NNW 39 44 21 24 995.8 - 2.6
17/09:30pm 5.5 -3.6 3.8 89 0.7 NNW 41 46 22 25 995.9 - 2.6
17/09:00pm 5.5 -3.6 3.8 89 0.7 NNW 41 48 22 26 996.0 996.3 2.6
17/08:30pm 5.5 -2.5 3.8 89 0.7 NNW 35 41 19 22 996.3 - 2.4
17/08:00pm 5.6 -3.8 4.4 92 0.5 N 43 48 23 26 996.2 - 2.4
17/07:30pm 5.7 -3.6 4.8 94 0.4 NNW 43 56 23 30 996.9 - 2.4
17/07:00pm 5.9 -4.8 4.5 91 0.6 N 50 57 27 31 996.5 - 1.2
17/06:30pm 5.8 -5.0 4.3 90 0.6 N 50 61 27 33 996.9 - 1.2
17/06:00pm 5.7 -5.1 4.0 89 0.7 N 50 59 27 32 997.1 997.4 1.2
17/05:30pm 5.8 -4.2 4.1 89 0.7 N 46 56 25 30 997.5 - 1.2
17/05:00pm 5.7 -4.3 4.2 90 0.6 N 46 54 25 29 997.9 - 1.2
17/04:30pm 5.7 -4.3 4.3 91 0.6 N 46 56 25 30 998.1 - 1.2
17/04:00pm 5.6 -4.8 4.2 91 0.6 N 48 56 26 30 998.4 - 1.2
17/03:30pm 5.6 -4.3 4.6 93 0.4 N 46 54 25 29 998.7 - 1.2
17/03:00pm 5.7 -3.9 4.5 92 0.5 N 44 50 24 27 999.0 999.3 1.2
17/02:30pm 5.9 -3.5 4.7 92 0.5 N 43 50 23 27 999.3 - 1.2
17/02:00pm 5.7 -2.9 4.7 93 0.4 NNW 39 46 21 25 999.7 - 1.2
17/01:30pm 5.8 -2.0 4.8 93 0.4 NNW 35 41 19 22 1000.1 - 1.2
17/01:00pm 5.7 -1.7 5.0 95 0.3 NNW 33 39 18 21 1000.4 - 1.2
17/12:30pm 5.7 -3.2 5.0 95 0.3 NNW 41 46 22 25 1000.7 - 1.2
17/12:00pm 5.6 -3.3 4.9 95 0.3 NNW 41 46 22 25 1001.0 1001.3 0.8
17/11:30am 5.6 -2.6 4.9 95 0.3 NNW 37 43 20 23 1001.4 - 0.6
17/11:00am 5.7 -1.7 5.0 95 0.3 NNW 33 39 18 21 1001.8 - 0.2
17/10:30am 5.6 -2.2 4.9 95 0.3 NNW 35 41 19 22 1002.0 - 0.2
17/10:00am 5.5 -1.0 4.6 94 0.4 N 28 33 15 18 1002.5 - 0.0
17/09:30am 5.7 0.9 4.8 94 0.4 N 19 28 10 15 1002.9 - 0.0
17/09:00am 5.1 2.1 4.1 93 0.4 N 9 13 5 7 1003.4 1003.7 2.0
17/08:30am 4.4 1.2 3.2 92 0.5 NNW 9 11 5 6 1003.8 - 1.8
17/08:00am 4.2 1.0 2.9 91 0.5 N 9 11 5 6 1004.0 - 1.6
17/07:30am 4.0 0.7 2.5 90 0.6 NNW 9 11 5 6 1004.2 - 1.6
17/07:00am 3.9 0.2 2.6 91 0.5 NNW 11 13 6 7 1004.2 - 1.6
17/06:30am 3.7 0.0 2.5 92 0.5 NNW 11 13 6 7 1004.1 - 1.6
17/06:00am 3.6 -0.5 2.4 92 0.5 N 13 15 7 8 1004.2 1004.5 1.6
17/05:30am 3.7 -1.1 2.5 92 0.5 WNW 17 20 9 11 1004.2 - 1.6
17/05:00am 3.7 -1.1 2.5 92 0.5 W 17 22 9 12 1004.0 - 1.4
17/04:30am 3.7 -2.5 2.2 90 0.6 WSW 24 33 13 18 1004.0 - 1.2
17/04:00am 4.0 -2.9 2.8 92 0.5 W 28 35 15 19 1003.9 - 0.8
17/03:30am 4.4 -2.3 3.7 95 0.3 W 28 33 15 18 1003.9 - 0.8
17/03:10am 5.1 -2.8 4.5 96 0.3 NNW 35 39 19 21 1003.6 - 0.4
17/03:07am 5.1 -3.1 4.5 96 0.3 N 37 41 20 22 1003.6 - 0.4
17/03:00am 5.2 -2.7 4.6 96 0.3 NNW 35 43 19 23 1003.6 1003.9 0.2
17/02:30am 5.1 -2.4 4.4 95 0.3 NNW 33 43 18 23 1003.5 - 0.0
17/02:00am 5.2 -2.7 4.3 94 0.4 NNW 35 44 19 24 1003.7 - 0.0
17/01:30am 5.2 -2.3 4.2 93 0.4 NNW 33 43 18 23 1003.8 - 0.0
17/01:00am 5.3 -2.3 4.1 92 0.5 NNW 33 41 18 22 1003.9 - 0.0
17/12:30am 5.3 -2.2 4.3 93 0.4 NNW 33 39 18 21 1004.0 - 0.0
17/12:00am 5.1 -2.5 4.1 93 0.4 NNW 33 39 18 21 1004.0 1004.3 0.0
 
Date/Time
EST
Temp
°C
App
Temp
°C
Dew
Point
Rel
Hum
%
Delta-T
°C
Wind Press
QNH
hPa
Press
MSL
hPa
Rain
since 9 am
mm
Dir
 
Spd
km/h
Gust
km/h
Spd
kts
Gust
kts
16/11:30pm 5.2 -2.2 4.0 92 0.5 NNW 32 44 17 24 1004.2 - 0.0
16/11:00pm 5.2 -2.4 4.0 92 0.5 NNW 33 39 18 21 1004.3 - 0.0
16/10:30pm 5.2 -2.2 4.0 92 0.5 NNW 32 39 17 21 1004.6 - 0.0
16/10:00pm 5.1 -2.5 3.9 92 0.5 NNW 33 41 18 22 1004.6 - 0.0

Other Formats:

Comma delimited format used in spreadsheet applications
http://www.bom.gov.au/fwo/IDT60803/IDT60803.94998.axf

JavaScript Object Notation format (JSON) in row-major order
http://www.bom.gov.au/fwo/IDT60803/IDT60803.94998.json